sensor_id;sensor_type;location;lat;lon;timestamp;P1;durP1;ratioP1;P2;durP2;ratioP2
76292;SDS011;67256;51.154;4.164;2023-03-16T00:01:18;9.70;;;4.65;;
76292;SDS011;67256;51.154;4.164;2023-03-16T00:03:44;7.45;;;4.25;;
76292;SDS011;67256;51.154;4.164;2023-03-16T00:06:09;8.88;;;4.47;;
76292;SDS011;67256;51.154;4.164;2023-03-16T00:08:35;7.90;;;4.28;;
76292;SDS011;67256;51.154;4.164;2023-03-16T00:11:02;7.75;;;4.35;;
76292;SDS011;67256;51.154;4.164;2023-03-16T00:13:28;7.72;;;4.07;;
76292;SDS011;67256;51.154;4.164;2023-03-16T00:15:55;6.28;;;4.45;;
76292;SDS011;67256;51.154;4.164;2023-03-16T00:18:24;8.00;;;3.95;;
76292;SDS011;67256;51.154;4.164;2023-03-16T00:20:59;9.35;;;4.47;;
76292;SDS011;67256;51.154;4.164;2023-03-16T00:23:27;7.90;;;4.03;;
76292;SDS011;67256;51.154;4.164;2023-03-16T00:25:54;10.63;;;3.70;;
76292;SDS011;67256;51.154;4.164;2023-03-16T00:28:24;5.72;;;3.72;;
76292;SDS011;67256;51.154;4.164;2023-03-16T00:30:51;8.05;;;3.65;;
76292;SDS011;67256;51.154;4.164;2023-03-16T00:33:17;7.43;;;4.00;;
76292;SDS011;67256;51.154;4.164;2023-03-16T00:35:46;7.68;;;4.20;;
76292;SDS011;67256;51.154;4.164;2023-03-16T00:38:14;9.77;;;4.65;;
76292;SDS011;67256;51.154;4.164;2023-03-16T00:40:43;10.00;;;3.88;;
76292;SDS011;67256;51.154;4.164;2023-03-16T00:43:09;8.63;;;4.10;;
76292;SDS011;67256;51.154;4.164;2023-03-16T00:45:35;6.85;;;3.83;;
76292;SDS011;67256;51.154;4.164;2023-03-16T00:48:01;7.63;;;3.92;;
76292;SDS011;67256;51.154;4.164;2023-03-16T00:50:27;6.35;;;4.10;;
76292;SDS011;67256;51.154;4.164;2023-03-16T00:52:53;10.52;;;4.47;;
76292;SDS011;67256;51.154;4.164;2023-03-16T00:55:19;6.47;;;4.03;;
76292;SDS011;67256;51.154;4.164;2023-03-16T00:57:45;9.73;;;4.10;;
76292;SDS011;67256;51.154;4.164;2023-03-16T01:00:12;10.60;;;4.18;;
76292;SDS011;67256;51.154;4.164;2023-03-16T01:02:41;7.43;;;4.10;;
76292;SDS011;67256;51.154;4.164;2023-03-16T01:05:09;9.25;;;3.72;;
76292;SDS011;67256;51.154;4.164;2023-03-16T01:07:36;7.18;;;3.65;;
76292;SDS011;67256;51.154;4.164;2023-03-16T01:10:03;12.13;;;4.72;;
76292;SDS011;67256;51.154;4.164;2023-03-16T01:12:30;7.07;;;3.88;;
76292;SDS011;67256;51.154;4.164;2023-03-16T01:14:55;9.43;;;4.40;;
76292;SDS011;67256;51.154;4.164;2023-03-16T01:17:21;7.22;;;3.53;;
76292;SDS011;67256;51.154;4.164;2023-03-16T01:19:47;10.65;;;4.18;;
76292;SDS011;67256;51.154;4.164;2023-03-16T01:22:14;7.72;;;3.75;;
76292;SDS011;67256;51.154;4.164;2023-03-16T01:24:40;7.45;;;3.60;;
76292;SDS011;67256;51.154;4.164;2023-03-16T01:27:09;6.40;;;3.37;;
76292;SDS011;67256;51.154;4.164;2023-03-16T01:29:37;7.72;;;3.80;;
76292;SDS011;67256;51.154;4.164;2023-03-16T01:32:04;9.15;;;3.75;;
76292;SDS011;67256;51.154;4.164;2023-03-16T01:34:31;7.20;;;4.07;;
76292;SDS011;67256;51.154;4.164;2023-03-16T01:36:58;10.30;;;4.07;;
76292;SDS011;67256;51.154;4.164;2023-03-16T01:39:25;12.32;;;4.40;;
76292;SDS011;67256;51.154;4.164;2023-03-16T01:41:51;7.03;;;3.83;;
76292;SDS011;67256;51.154;4.164;2023-03-16T01:44:19;10.18;;;4.05;;
76292;SDS011;67256;51.154;4.164;2023-03-16T01:46:48;5.10;;;3.28;;
76292;SDS011;67256;51.154;4.164;2023-03-16T01:51:54;8.48;;;3.63;;
76292;SDS011;67256;51.154;4.164;2023-03-16T01:56:58;6.55;;;3.30;;
76292;SDS011;67256;51.154;4.164;2023-03-16T01:59:38;7.20;;;2.92;;
76292;SDS011;67256;51.154;4.164;2023-03-16T02:02:08;5.40;;;2.90;;
76292;SDS011;67256;51.154;4.164;2023-03-16T02:07:22;6.72;;;3.78;;
76292;SDS011;67256;51.154;4.164;2023-03-16T02:09:50;7.15;;;3.35;;
76292;SDS011;67256;51.154;4.164;2023-03-16T02:12:19;8.43;;;3.53;;
76292;SDS011;67256;51.154;4.164;2023-03-16T02:14:48;5.72;;;3.05;;
76292;SDS011;67256;51.154;4.164;2023-03-16T02:17:16;9.48;;;3.00;;
76292;SDS011;67256;51.154;4.164;2023-03-16T02:22:33;7.25;;;2.63;;
76292;SDS011;67256;51.154;4.164;2023-03-16T02:25:00;6.63;;;2.85;;
76292;SDS011;67256;51.154;4.164;2023-03-16T02:27:29;8.57;;;2.90;;
76292;SDS011;67256;51.154;4.164;2023-03-16T02:30:18;6.88;;;2.88;;
76292;SDS011;67256;51.154;4.164;2023-03-16T02:32:45;6.97;;;2.42;;
76292;SDS011;67256;51.154;4.164;2023-03-16T02:35:16;7.60;;;2.50;;
76292;SDS011;67256;51.154;4.164;2023-03-16T02:37:43;8.55;;;2.70;;
76292;SDS011;67256;51.154;4.164;2023-03-16T02:40:25;4.50;;;2.63;;
76292;SDS011;67256;51.154;4.164;2023-03-16T02:42:58;9.35;;;2.60;;
76292;SDS011;67256;51.154;4.164;2023-03-16T02:45:28;9.30;;;3.45;;
76292;SDS011;67256;51.154;4.164;2023-03-16T02:48:04;4.78;;;2.45;;
76292;SDS011;67256;51.154;4.164;2023-03-16T02:50:41;5.13;;;2.42;;
76292;SDS011;67256;51.154;4.164;2023-03-16T02:53:13;6.75;;;2.50;;
76292;SDS011;67256;51.154;4.164;2023-03-16T02:55:39;6.30;;;2.60;;
76292;SDS011;67256;51.154;4.164;2023-03-16T02:58:05;10.73;;;3.22;;
76292;SDS011;67256;51.154;4.164;2023-03-16T03:00:31;10.02;;;3.17;;
76292;SDS011;67256;51.154;4.164;2023-03-16T03:02:57;6.32;;;2.53;;
76292;SDS011;67256;51.154;4.164;2023-03-16T03:05:23;5.93;;;2.40;;
76292;SDS011;67256;51.154;4.164;2023-03-16T03:07:49;5.63;;;2.80;;
76292;SDS011;67256;51.154;4.164;2023-03-16T03:10:15;18.70;;;2.90;;
76292;SDS011;67256;51.154;4.164;2023-03-16T03:12:41;8.95;;;2.58;;
76292;SDS011;67256;51.154;4.164;2023-03-16T03:15:07;5.25;;;2.42;;
76292;SDS011;67256;51.154;4.164;2023-03-16T03:17:33;5.90;;;2.50;;
76292;SDS011;67256;51.154;4.164;2023-03-16T03:19:59;6.88;;;2.33;;
76292;SDS011;67256;51.154;4.164;2023-03-16T03:22:40;6.80;;;2.33;;
76292;SDS011;67256;51.154;4.164;2023-03-16T03:25:09;4.43;;;2.23;;
76292;SDS011;67256;51.154;4.164;2023-03-16T03:27:35;6.13;;;2.30;;
76292;SDS011;67256;51.154;4.164;2023-03-16T03:30:02;6.63;;;2.60;;
76292;SDS011;67256;51.154;4.164;2023-03-16T03:32:29;9.15;;;2.50;;
76292;SDS011;67256;51.154;4.164;2023-03-16T03:34:55;8.48;;;2.38;;
76292;SDS011;67256;51.154;4.164;2023-03-16T03:37:21;11.35;;;3.17;;
76292;SDS011;67256;51.154;4.164;2023-03-16T03:39:48;7.15;;;2.35;;
76292;SDS011;67256;51.154;4.164;2023-03-16T03:42:14;5.45;;;2.40;;
76292;SDS011;67256;51.154;4.164;2023-03-16T03:44:39;9.73;;;2.60;;
76292;SDS011;67256;51.154;4.164;2023-03-16T03:47:05;10.02;;;2.20;;
76292;SDS011;67256;51.154;4.164;2023-03-16T03:49:31;6.30;;;2.17;;
76292;SDS011;67256;51.154;4.164;2023-03-16T03:51:56;6.63;;;2.22;;
76292;SDS011;67256;51.154;4.164;2023-03-16T03:54:23;11.00;;;2.30;;
76292;SDS011;67256;51.154;4.164;2023-03-16T03:56:50;6.18;;;1.90;;
76292;SDS011;67256;51.154;4.164;2023-03-16T03:59:16;7.07;;;2.05;;
76292;SDS011;67256;51.154;4.164;2023-03-16T04:01:42;8.60;;;2.22;;
76292;SDS011;67256;51.154;4.164;2023-03-16T04:04:08;5.88;;;1.98;;
76292;SDS011;67256;51.154;4.164;2023-03-16T04:06:33;7.78;;;1.95;;
76292;SDS011;67256;51.154;4.164;2023-03-16T04:08:59;5.53;;;1.80;;
76292;SDS011;67256;51.154;4.164;2023-03-16T04:11:25;6.68;;;2.17;;
76292;SDS011;67256;51.154;4.164;2023-03-16T04:13:51;8.07;;;2.42;;
76292;SDS011;67256;51.154;4.164;2023-03-16T04:16:17;3.78;;;1.88;;
76292;SDS011;67256;51.154;4.164;2023-03-16T04:18:44;4.63;;;2.13;;
76292;SDS011;67256;51.154;4.164;2023-03-16T04:21:12;7.32;;;2.03;;
76292;SDS011;67256;51.154;4.164;2023-03-16T04:23:40;7.32;;;1.85;;
76292;SDS011;67256;51.154;4.164;2023-03-16T04:26:06;10.18;;;1.98;;
76292;SDS011;67256;51.154;4.164;2023-03-16T04:28:32;4.82;;;1.65;;
76292;SDS011;67256;51.154;4.164;2023-03-16T04:31:01;7.00;;;1.80;;
76292;SDS011;67256;51.154;4.164;2023-03-16T04:33:29;8.55;;;1.90;;
76292;SDS011;67256;51.154;4.164;2023-03-16T04:35:56;6.47;;;2.15;;
76292;SDS011;67256;51.154;4.164;2023-03-16T04:38:22;8.63;;;1.73;;
76292;SDS011;67256;51.154;4.164;2023-03-16T04:40:48;5.90;;;1.85;;
76292;SDS011;67256;51.154;4.164;2023-03-16T04:43:14;5.03;;;2.20;;
76292;SDS011;67256;51.154;4.164;2023-03-16T04:45:39;6.97;;;1.80;;
76292;SDS011;67256;51.154;4.164;2023-03-16T04:48:05;6.10;;;2.80;;
76292;SDS011;67256;51.154;4.164;2023-03-16T04:50:31;6.47;;;2.40;;
76292;SDS011;67256;51.154;4.164;2023-03-16T04:52:57;4.68;;;1.88;;
76292;SDS011;67256;51.154;4.164;2023-03-16T04:55:23;4.32;;;1.70;;
76292;SDS011;67256;51.154;4.164;2023-03-16T04:57:49;5.50;;;2.00;;
76292;SDS011;67256;51.154;4.164;2023-03-16T05:00:17;6.45;;;2.00;;
76292;SDS011;67256;51.154;4.164;2023-03-16T05:02:45;4.53;;;1.80;;
76292;SDS011;67256;51.154;4.164;2023-03-16T05:05:11;6.47;;;1.90;;
76292;SDS011;67256;51.154;4.164;2023-03-16T05:07:37;5.35;;;2.03;;
76292;SDS011;67256;51.154;4.164;2023-03-16T05:10:06;8.10;;;2.05;;
76292;SDS011;67256;51.154;4.164;2023-03-16T05:12:36;5.72;;;1.92;;
76292;SDS011;67256;51.154;4.164;2023-03-16T05:15:02;3.85;;;1.52;;
76292;SDS011;67256;51.154;4.164;2023-03-16T05:17:28;5.70;;;1.60;;
76292;SDS011;67256;51.154;4.164;2023-03-16T05:19:54;4.35;;;2.28;;
76292;SDS011;67256;51.154;4.164;2023-03-16T05:22:20;4.60;;;2.10;;
76292;SDS011;67256;51.154;4.164;2023-03-16T05:24:45;7.25;;;2.28;;
76292;SDS011;67256;51.154;4.164;2023-03-16T05:27:11;6.78;;;1.63;;
76292;SDS011;67256;51.154;4.164;2023-03-16T05:29:37;3.90;;;1.50;;
76292;SDS011;67256;51.154;4.164;2023-03-16T05:32:02;5.50;;;1.95;;
76292;SDS011;67256;51.154;4.164;2023-03-16T05:34:30;9.52;;;1.88;;
76292;SDS011;67256;51.154;4.164;2023-03-16T05:36:57;5.40;;;1.73;;
76292;SDS011;67256;51.154;4.164;2023-03-16T05:39:22;4.20;;;1.60;;
76292;SDS011;67256;51.154;4.164;2023-03-16T05:41:48;6.70;;;1.65;;
76292;SDS011;67256;51.154;4.164;2023-03-16T05:44:14;5.50;;;1.52;;
76292;SDS011;67256;51.154;4.164;2023-03-16T05:46:39;8.65;;;1.55;;
76292;SDS011;67256;51.154;4.164;2023-03-16T05:49:05;7.03;;;2.00;;
76292;SDS011;67256;51.154;4.164;2023-03-16T05:51:31;8.00;;;1.85;;
76292;SDS011;67256;51.154;4.164;2023-03-16T05:53:57;4.38;;;1.88;;
76292;SDS011;67256;51.154;4.164;2023-03-16T05:56:23;3.20;;;1.58;;
76292;SDS011;67256;51.154;4.164;2023-03-16T05:58:51;5.72;;;2.28;;
76292;SDS011;67256;51.154;4.164;2023-03-16T06:01:18;3.35;;;1.30;;
76292;SDS011;67256;51.154;4.164;2023-03-16T06:03:45;4.90;;;1.90;;
76292;SDS011;67256;51.154;4.164;2023-03-16T06:06:11;5.70;;;1.50;;
76292;SDS011;67256;51.154;4.164;2023-03-16T06:08:37;5.90;;;1.80;;
76292;SDS011;67256;51.154;4.164;2023-03-16T06:11:03;9.95;;;2.75;;
76292;SDS011;67256;51.154;4.164;2023-03-16T06:13:28;6.75;;;1.98;;
76292;SDS011;67256;51.154;4.164;2023-03-16T06:15:54;7.97;;;1.83;;
76292;SDS011;67256;51.154;4.164;2023-03-16T06:18:21;4.28;;;1.85;;
76292;SDS011;67256;51.154;4.164;2023-03-16T06:20:46;5.85;;;1.77;;
76292;SDS011;67256;51.154;4.164;2023-03-16T06:23:12;4.30;;;1.40;;
76292;SDS011;67256;51.154;4.164;2023-03-16T06:25:38;5.03;;;1.85;;
76292;SDS011;67256;51.154;4.164;2023-03-16T06:28:04;4.93;;;1.58;;
76292;SDS011;67256;51.154;4.164;2023-03-16T06:30:30;11.23;;;1.55;;
76292;SDS011;67256;51.154;4.164;2023-03-16T06:32:56;3.75;;;1.35;;
76292;SDS011;67256;51.154;4.164;2023-03-16T06:35:24;3.83;;;1.30;;
76292;SDS011;67256;51.154;4.164;2023-03-16T06:37:50;4.53;;;1.92;;
76292;SDS011;67256;51.154;4.164;2023-03-16T06:40:16;3.83;;;1.23;;
76292;SDS011;67256;51.154;4.164;2023-03-16T06:42:41;4.50;;;1.60;;
76292;SDS011;67256;51.154;4.164;2023-03-16T06:45:08;4.53;;;1.33;;
76292;SDS011;67256;51.154;4.164;2023-03-16T06:47:35;6.32;;;1.98;;
76292;SDS011;67256;51.154;4.164;2023-03-16T06:50:01;5.38;;;1.35;;
76292;SDS011;67256;51.154;4.164;2023-03-16T06:52:28;10.55;;;1.80;;
76292;SDS011;67256;51.154;4.164;2023-03-16T06:54:54;8.32;;;1.60;;
76292;SDS011;67256;51.154;4.164;2023-03-16T06:57:23;4.95;;;1.30;;
76292;SDS011;67256;51.154;4.164;2023-03-16T06:59:49;6.78;;;1.48;;
76292;SDS011;67256;51.154;4.164;2023-03-16T07:02:15;3.42;;;1.50;;
76292;SDS011;67256;51.154;4.164;2023-03-16T07:04:41;8.48;;;2.22;;
76292;SDS011;67256;51.154;4.164;2023-03-16T07:07:08;4.75;;;1.40;;
76292;SDS011;67256;51.154;4.164;2023-03-16T07:09:34;6.03;;;1.73;;
76292;SDS011;67256;51.154;4.164;2023-03-16T07:11:59;4.38;;;2.17;;
76292;SDS011;67256;51.154;4.164;2023-03-16T07:14:25;6.20;;;1.88;;
76292;SDS011;67256;51.154;4.164;2023-03-16T07:16:51;4.72;;;1.70;;
76292;SDS011;67256;51.154;4.164;2023-03-16T07:19:17;5.32;;;1.70;;
76292;SDS011;67256;51.154;4.164;2023-03-16T07:21:43;5.65;;;1.60;;
76292;SDS011;67256;51.154;4.164;2023-03-16T07:24:09;8.38;;;2.28;;
76292;SDS011;67256;51.154;4.164;2023-03-16T07:26:36;7.65;;;2.25;;
76292;SDS011;67256;51.154;4.164;2023-03-16T07:29:02;8.38;;;1.88;;
76292;SDS011;67256;51.154;4.164;2023-03-16T07:31:30;6.97;;;1.40;;
76292;SDS011;67256;51.154;4.164;2023-03-16T07:33:57;3.00;;;1.52;;
76292;SDS011;67256;51.154;4.164;2023-03-16T07:36:23;4.43;;;1.90;;
76292;SDS011;67256;51.154;4.164;2023-03-16T07:38:50;5.93;;;1.33;;
76292;SDS011;67256;51.154;4.164;2023-03-16T07:41:16;6.53;;;1.55;;
76292;SDS011;67256;51.154;4.164;2023-03-16T07:43:42;6.10;;;2.05;;
76292;SDS011;67256;51.154;4.164;2023-03-16T07:46:10;6.55;;;1.50;;
76292;SDS011;67256;51.154;4.164;2023-03-16T07:48:38;5.78;;;1.23;;
76292;SDS011;67256;51.154;4.164;2023-03-16T07:51:04;4.20;;;1.80;;
76292;SDS011;67256;51.154;4.164;2023-03-16T07:53:30;4.88;;;1.15;;
76292;SDS011;67256;51.154;4.164;2023-03-16T07:55:56;6.00;;;1.23;;
76292;SDS011;67256;51.154;4.164;2023-03-16T07:58:22;3.38;;;1.38;;
76292;SDS011;67256;51.154;4.164;2023-03-16T08:00:48;5.15;;;1.55;;
76292;SDS011;67256;51.154;4.164;2023-03-16T08:03:13;8.23;;;1.65;;
76292;SDS011;67256;51.154;4.164;2023-03-16T08:05:39;3.42;;;1.38;;
76292;SDS011;67256;51.154;4.164;2023-03-16T08:08:05;6.10;;;1.70;;
76292;SDS011;67256;51.154;4.164;2023-03-16T08:10:33;4.47;;;1.55;;
76292;SDS011;67256;51.154;4.164;2023-03-16T08:12:59;3.65;;;1.58;;
76292;SDS011;67256;51.154;4.164;2023-03-16T08:15:28;4.97;;;2.10;;
76292;SDS011;67256;51.154;4.164;2023-03-16T08:17:58;10.65;;;1.63;;
76292;SDS011;67256;51.154;4.164;2023-03-16T08:20:27;5.32;;;1.80;;
76292;SDS011;67256;51.154;4.164;2023-03-16T08:22:54;4.65;;;1.52;;
76292;SDS011;67256;51.154;4.164;2023-03-16T08:25:19;5.07;;;1.80;;
76292;SDS011;67256;51.154;4.164;2023-03-16T08:27:45;4.28;;;1.48;;
76292;SDS011;67256;51.154;4.164;2023-03-16T08:30:12;8.32;;;1.88;;
76292;SDS011;67256;51.154;4.164;2023-03-16T08:32:40;5.45;;;1.70;;
76292;SDS011;67256;51.154;4.164;2023-03-16T08:35:07;4.95;;;1.40;;
76292;SDS011;67256;51.154;4.164;2023-03-16T08:37:37;4.53;;;1.60;;
76292;SDS011;67256;51.154;4.164;2023-03-16T08:40:04;6.43;;;2.00;;
76292;SDS011;67256;51.154;4.164;2023-03-16T08:42:39;3.65;;;1.42;;
76292;SDS011;67256;51.154;4.164;2023-03-16T08:45:06;6.03;;;1.85;;
76292;SDS011;67256;51.154;4.164;2023-03-16T08:47:37;9.85;;;1.80;;
76292;SDS011;67256;51.154;4.164;2023-03-16T08:50:04;4.78;;;1.38;;
76292;SDS011;67256;51.154;4.164;2023-03-16T08:52:32;4.32;;;1.42;;
76292;SDS011;67256;51.154;4.164;2023-03-16T08:55:00;6.18;;;1.20;;
76292;SDS011;67256;51.154;4.164;2023-03-16T08:57:29;7.15;;;1.20;;
76292;SDS011;67256;51.154;4.164;2023-03-16T08:59:57;3.80;;;1.55;;
76292;SDS011;67256;51.154;4.164;2023-03-16T09:02:23;3.78;;;1.35;;
76292;SDS011;67256;51.154;4.164;2023-03-16T09:04:49;5.18;;;1.58;;
76292;SDS011;67256;51.154;4.164;2023-03-16T09:07:16;5.97;;;1.60;;
76292;SDS011;67256;51.154;4.164;2023-03-16T09:09:43;2.50;;;1.05;;
76292;SDS011;67256;51.154;4.164;2023-03-16T09:12:09;5.13;;;1.50;;
76292;SDS011;67256;51.154;4.164;2023-03-16T09:14:36;4.90;;;1.58;;
76292;SDS011;67256;51.154;4.164;2023-03-16T09:17:03;5.47;;;1.60;;
76292;SDS011;67256;51.154;4.164;2023-03-16T09:19:31;5.40;;;1.40;;
76292;SDS011;67256;51.154;4.164;2023-03-16T09:21:58;5.00;;;1.58;;
76292;SDS011;67256;51.154;4.164;2023-03-16T09:24:24;4.15;;;1.27;;
76292;SDS011;67256;51.154;4.164;2023-03-16T09:26:50;5.88;;;1.35;;
76292;SDS011;67256;51.154;4.164;2023-03-16T09:29:16;4.38;;;1.13;;
76292;SDS011;67256;51.154;4.164;2023-03-16T09:31:43;3.17;;;1.67;;
76292;SDS011;67256;51.154;4.164;2023-03-16T09:34:10;5.15;;;1.60;;
76292;SDS011;67256;51.154;4.164;2023-03-16T09:36:35;4.65;;;1.70;;
76292;SDS011;67256;51.154;4.164;2023-03-16T09:39:02;3.00;;;1.10;;
76292;SDS011;67256;51.154;4.164;2023-03-16T09:41:47;5.07;;;1.40;;
76292;SDS011;67256;51.154;4.164;2023-03-16T09:46:55;5.25;;;1.42;;
76292;SDS011;67256;51.154;4.164;2023-03-16T09:49:26;2.33;;;1.00;;
76292;SDS011;67256;51.154;4.164;2023-03-16T09:57:28;3.25;;;1.20;;
76292;SDS011;67256;51.154;4.164;2023-03-16T10:00:09;2.88;;;1.40;;
76292;SDS011;67256;51.154;4.164;2023-03-16T10:05:46;3.92;;;0.80;;
76292;SDS011;67256;51.154;4.164;2023-03-16T10:08:22;6.50;;;1.42;;
76292;SDS011;67256;51.154;4.164;2023-03-16T10:13:52;3.20;;;1.30;;
76292;SDS011;67256;51.154;4.164;2023-03-16T10:21:38;4.10;;;1.10;;
76292;SDS011;67256;51.154;4.164;2023-03-16T10:24:12;4.47;;;0.90;;
76292;SDS011;67256;51.154;4.164;2023-03-16T10:26:51;4.88;;;1.20;;
76292;SDS011;67256;51.154;4.164;2023-03-16T10:29:20;4.47;;;1.10;;
76292;SDS011;67256;51.154;4.164;2023-03-16T10:31:46;4.80;;;1.25;;
76292;SDS011;67256;51.154;4.164;2023-03-16T10:34:12;4.35;;;1.48;;
76292;SDS011;67256;51.154;4.164;2023-03-16T10:36:40;2.83;;;1.20;;
76292;SDS011;67256;51.154;4.164;2023-03-16T10:39:12;6.50;;;1.40;;
76292;SDS011;67256;51.154;4.164;2023-03-16T10:41:44;6.32;;;1.70;;
76292;SDS011;67256;51.154;4.164;2023-03-16T10:47:00;3.03;;;1.08;;
76292;SDS011;67256;51.154;4.164;2023-03-16T10:52:03;3.80;;;1.23;;
76292;SDS011;67256;51.154;4.164;2023-03-16T10:54:38;4.55;;;1.30;;
76292;SDS011;67256;51.154;4.164;2023-03-16T10:59:51;6.05;;;1.33;;
76292;SDS011;67256;51.154;4.164;2023-03-16T11:02:22;4.75;;;1.20;;
76292;SDS011;67256;51.154;4.164;2023-03-16T11:04:54;4.22;;;1.20;;
76292;SDS011;67256;51.154;4.164;2023-03-16T11:07:21;3.22;;;1.23;;
76292;SDS011;67256;51.154;4.164;2023-03-16T11:09:49;6.10;;;1.50;;
76292;SDS011;67256;51.154;4.164;2023-03-16T11:12:29;3.10;;;0.90;;
76292;SDS011;67256;51.154;4.164;2023-03-16T11:15:02;3.40;;;1.15;;
76292;SDS011;67256;51.154;4.164;2023-03-16T11:17:38;3.17;;;1.50;;
76292;SDS011;67256;51.154;4.164;2023-03-16T11:20:16;3.15;;;1.20;;
76292;SDS011;67256;51.154;4.164;2023-03-16T11:22:56;4.07;;;1.02;;
76292;SDS011;67256;51.154;4.164;2023-03-16T11:25:31;6.05;;;1.48;;
76292;SDS011;67256;51.154;4.164;2023-03-16T11:33:08;8.52;;;1.15;;
76292;SDS011;67256;51.154;4.164;2023-03-16T11:55:28;3.08;;;0.93;;
76292;SDS011;67256;51.154;4.164;2023-03-16T12:01:00;5.57;;;1.17;;
76292;SDS011;67256;51.154;4.164;2023-03-16T12:06:50;8.35;;;2.28;;
76292;SDS011;67256;51.154;4.164;2023-03-16T12:09:26;7.25;;;0.90;;
76292;SDS011;67256;51.154;4.164;2023-03-16T12:14:59;4.10;;;1.08;;
76292;SDS011;67256;51.154;4.164;2023-03-16T12:17:34;3.75;;;1.30;;
76292;SDS011;67256;51.154;4.164;2023-03-16T12:21:03;2.72;;;0.90;;
76292;SDS011;67256;51.154;4.164;2023-03-16T12:23:04;2.85;;;1.25;;
76292;SDS011;67256;51.154;4.164;2023-03-16T12:25:38;3.55;;;1.05;;
76292;SDS011;67256;51.154;4.164;2023-03-16T12:28:13;2.13;;;0.85;;
76292;SDS011;67256;51.154;4.164;2023-03-16T12:36:02;4.65;;;1.00;;
76292;SDS011;67256;51.154;4.164;2023-03-16T12:39:34;2.08;;;0.95;;
76292;SDS011;67256;51.154;4.164;2023-03-16T12:44:29;6.20;;;0.60;;
76292;SDS011;67256;51.154;4.164;2023-03-16T12:47:06;2.95;;;1.77;;
76292;SDS011;67256;51.154;4.164;2023-03-16T12:49:44;3.20;;;0.82;;
76292;SDS011;67256;51.154;4.164;2023-03-16T12:52:11;3.60;;;0.95;;
76292;SDS011;67256;51.154;4.164;2023-03-16T12:54:53;4.28;;;1.00;;
76292;SDS011;67256;51.154;4.164;2023-03-16T12:57:36;4.88;;;1.08;;
76292;SDS011;67256;51.154;4.164;2023-03-16T13:00:05;1.60;;;0.75;;
76292;SDS011;67256;51.154;4.164;2023-03-16T13:02:34;2.70;;;0.82;;
76292;SDS011;67256;51.154;4.164;2023-03-16T13:05:09;3.47;;;1.10;;
76292;SDS011;67256;51.154;4.164;2023-03-16T13:07:46;5.32;;;1.20;;
76292;SDS011;67256;51.154;4.164;2023-03-16T13:10:14;3.40;;;1.20;;
76292;SDS011;67256;51.154;4.164;2023-03-16T13:12:42;3.95;;;1.27;;
76292;SDS011;67256;51.154;4.164;2023-03-16T13:17:46;4.15;;;1.08;;
76292;SDS011;67256;51.154;4.164;2023-03-16T13:23:45;4.03;;;0.98;;
76292;SDS011;67256;51.154;4.164;2023-03-16T13:28:42;6.35;;;0.70;;
76292;SDS011;67256;51.154;4.164;2023-03-16T13:31:27;5.78;;;1.23;;
76292;SDS011;67256;51.154;4.164;2023-03-16T13:34:01;3.00;;;0.82;;
76292;SDS011;67256;51.154;4.164;2023-03-16T13:36:29;4.72;;;0.80;;
76292;SDS011;67256;51.154;4.164;2023-03-16T13:39:06;3.78;;;0.77;;
76292;SDS011;67256;51.154;4.164;2023-03-16T13:41:57;4.13;;;1.15;;
76292;SDS011;67256;51.154;4.164;2023-03-16T13:44:29;2.75;;;0.82;;
76292;SDS011;67256;51.154;4.164;2023-03-16T13:46:56;3.88;;;0.80;;
76292;SDS011;67256;51.154;4.164;2023-03-16T13:49:26;2.47;;;0.93;;
76292;SDS011;67256;51.154;4.164;2023-03-16T13:51:52;4.88;;;1.23;;
76292;SDS011;67256;51.154;4.164;2023-03-16T13:54:25;7.25;;;1.23;;
76292;SDS011;67256;51.154;4.164;2023-03-16T13:56:57;2.08;;;0.68;;
76292;SDS011;67256;51.154;4.164;2023-03-16T13:59:25;10.52;;;1.38;;
76292;SDS011;67256;51.154;4.164;2023-03-16T14:01:57;1.73;;;0.60;;
76292;SDS011;67256;51.154;4.164;2023-03-16T14:04:29;6.72;;;1.30;;
76292;SDS011;67256;51.154;4.164;2023-03-16T14:06:57;3.67;;;0.90;;
76292;SDS011;67256;51.154;4.164;2023-03-16T14:09:27;5.65;;;1.38;;
76292;SDS011;67256;51.154;4.164;2023-03-16T14:11:56;2.03;;;0.77;;
76292;SDS011;67256;51.154;4.164;2023-03-16T14:14:25;4.10;;;1.08;;
76292;SDS011;67256;51.154;4.164;2023-03-16T14:16:58;2.88;;;0.80;;
76292;SDS011;67256;51.154;4.164;2023-03-16T14:19:37;3.55;;;0.70;;
76292;SDS011;67256;51.154;4.164;2023-03-16T14:22:16;3.75;;;1.23;;
76292;SDS011;67256;51.154;4.164;2023-03-16T14:29:49;4.30;;;0.85;;
76292;SDS011;67256;51.154;4.164;2023-03-16T14:32:19;5.22;;;1.17;;
76292;SDS011;67256;51.154;4.164;2023-03-16T14:34:51;6.45;;;1.08;;
76292;SDS011;67256;51.154;4.164;2023-03-16T14:37:17;3.78;;;0.80;;
76292;SDS011;67256;51.154;4.164;2023-03-16T14:39:56;3.88;;;1.00;;
76292;SDS011;67256;51.154;4.164;2023-03-16T14:42:27;5.45;;;1.63;;
76292;SDS011;67256;51.154;4.164;2023-03-16T14:44:55;3.25;;;1.10;;
76292;SDS011;67256;51.154;4.164;2023-03-16T14:47:23;8.20;;;0.90;;
76292;SDS011;67256;51.154;4.164;2023-03-16T14:54:56;4.57;;;1.10;;
76292;SDS011;67256;51.154;4.164;2023-03-16T14:57:23;2.80;;;1.05;;
76292;SDS011;67256;51.154;4.164;2023-03-16T14:59:51;5.82;;;1.55;;
76292;SDS011;67256;51.154;4.164;2023-03-16T15:02:18;2.33;;;0.80;;
76292;SDS011;67256;51.154;4.164;2023-03-16T15:04:48;2.40;;;1.00;;
76292;SDS011;67256;51.154;4.164;2023-03-16T15:07:26;5.32;;;0.90;;
76292;SDS011;67256;51.154;4.164;2023-03-16T15:09:55;5.65;;;0.80;;
76292;SDS011;67256;51.154;4.164;2023-03-16T15:12:31;3.30;;;0.82;;
76292;SDS011;67256;51.154;4.164;2023-03-16T15:14:58;2.92;;;1.60;;
76292;SDS011;67256;51.154;4.164;2023-03-16T15:17:40;3.05;;;1.13;;
76292;SDS011;67256;51.154;4.164;2023-03-16T15:20:09;4.03;;;1.00;;
76292;SDS011;67256;51.154;4.164;2023-03-16T15:22:40;2.90;;;0.82;;
76292;SDS011;67256;51.154;4.164;2023-03-16T15:25:20;2.85;;;0.75;;
76292;SDS011;67256;51.154;4.164;2023-03-16T15:27:47;6.70;;;1.13;;
76292;SDS011;67256;51.154;4.164;2023-03-16T15:30:14;7.25;;;1.00;;
76292;SDS011;67256;51.154;4.164;2023-03-16T15:32:49;2.05;;;0.75;;
76292;SDS011;67256;51.154;4.164;2023-03-16T15:35:16;3.55;;;1.10;;
76292;SDS011;67256;51.154;4.164;2023-03-16T15:37:43;2.38;;;1.10;;
76292;SDS011;67256;51.154;4.164;2023-03-16T15:40:17;2.15;;;1.00;;
76292;SDS011;67256;51.154;4.164;2023-03-16T15:42:44;2.67;;;1.00;;
76292;SDS011;67256;51.154;4.164;2023-03-16T15:45:10;5.18;;;0.80;;
76292;SDS011;67256;51.154;4.164;2023-03-16T15:47:38;4.15;;;1.00;;
76292;SDS011;67256;51.154;4.164;2023-03-16T15:50:05;4.97;;;0.75;;
76292;SDS011;67256;51.154;4.164;2023-03-16T15:52:33;3.15;;;0.75;;
76292;SDS011;67256;51.154;4.164;2023-03-16T15:55:01;2.28;;;0.85;;
76292;SDS011;67256;51.154;4.164;2023-03-16T15:57:31;3.55;;;0.90;;
76292;SDS011;67256;51.154;4.164;2023-03-16T15:59:58;3.33;;;0.90;;
76292;SDS011;67256;51.154;4.164;2023-03-16T16:04:52;2.28;;;0.90;;
76292;SDS011;67256;51.154;4.164;2023-03-16T16:07:18;2.80;;;0.80;;
76292;SDS011;67256;51.154;4.164;2023-03-16T16:09:44;2.88;;;0.85;;
76292;SDS011;67256;51.154;4.164;2023-03-16T16:12:11;2.45;;;0.88;;
76292;SDS011;67256;51.154;4.164;2023-03-16T16:14:38;6.47;;;1.92;;
76292;SDS011;67256;51.154;4.164;2023-03-16T16:17:09;3.65;;;1.00;;
76292;SDS011;67256;51.154;4.164;2023-03-16T16:19:35;1.75;;;0.90;;
76292;SDS011;67256;51.154;4.164;2023-03-16T16:22:01;3.45;;;0.82;;
76292;SDS011;67256;51.154;4.164;2023-03-16T16:24:28;2.22;;;0.85;;
76292;SDS011;67256;51.154;4.164;2023-03-16T16:26:53;2.15;;;0.93;;
76292;SDS011;67256;51.154;4.164;2023-03-16T16:29:20;2.85;;;0.80;;
76292;SDS011;67256;51.154;4.164;2023-03-16T16:31:47;2.20;;;0.80;;
76292;SDS011;67256;51.154;4.164;2023-03-16T16:34:16;2.03;;;0.80;;
76292;SDS011;67256;51.154;4.164;2023-03-16T16:36:45;5.25;;;1.13;;
76292;SDS011;67256;51.154;4.164;2023-03-16T16:39:12;2.17;;;0.60;;